sensor_id;sensor_type;location;lat;lon;timestamp;P1;durP1;ratioP1;P2;durP2;ratioP2
29120;SDS011;16191;49.548;8.658;2024-01-15T00:00:15;51.45;;;20.10;;
29120;SDS011;16191;49.548;8.658;2024-01-15T00:02:42;51.05;;;19.27;;
29120;SDS011;16191;49.548;8.658;2024-01-15T00:05:09;52.45;;;19.85;;
29120;SDS011;16191;49.548;8.658;2024-01-15T00:07:35;54.47;;;20.40;;
29120;SDS011;16191;49.548;8.658;2024-01-15T00:10:02;51.25;;;19.02;;
29120;SDS011;16191;49.548;8.658;2024-01-15T00:12:29;53.03;;;19.45;;
29120;SDS011;16191;49.548;8.658;2024-01-15T00:14:56;46.70;;;19.02;;
29120;SDS011;16191;49.548;8.658;2024-01-15T00:17:22;51.78;;;20.52;;
29120;SDS011;16191;49.548;8.658;2024-01-15T00:19:49;45.90;;;18.02;;
29120;SDS011;16191;49.548;8.658;2024-01-15T00:22:16;48.00;;;18.23;;
29120;SDS011;16191;49.548;8.658;2024-01-15T00:24:43;45.42;;;18.65;;
29120;SDS011;16191;49.548;8.658;2024-01-15T00:27:10;43.13;;;16.58;;
29120;SDS011;16191;49.548;8.658;2024-01-15T00:29:37;46.47;;;17.98;;
29120;SDS011;16191;49.548;8.658;2024-01-15T00:32:04;44.10;;;16.38;;
29120;SDS011;16191;49.548;8.658;2024-01-15T00:34:31;43.53;;;16.67;;
29120;SDS011;16191;49.548;8.658;2024-01-15T00:36:58;42.80;;;17.50;;
29120;SDS011;16191;49.548;8.658;2024-01-15T00:39:25;45.53;;;17.73;;
29120;SDS011;16191;49.548;8.658;2024-01-15T00:41:52;44.20;;;16.77;;
29120;SDS011;16191;49.548;8.658;2024-01-15T00:44:19;49.03;;;18.77;;
29120;SDS011;16191;49.548;8.658;2024-01-15T00:46:45;40.80;;;15.85;;
29120;SDS011;16191;49.548;8.658;2024-01-15T00:49:13;42.75;;;16.35;;
29120;SDS011;16191;49.548;8.658;2024-01-15T00:51:40;44.05;;;17.15;;
29120;SDS011;16191;49.548;8.658;2024-01-15T00:54:08;48.95;;;16.63;;
29120;SDS011;16191;49.548;8.658;2024-01-15T00:56:35;44.67;;;17.70;;
29120;SDS011;16191;49.548;8.658;2024-01-15T00:59:01;46.20;;;17.73;;
29120;SDS011;16191;49.548;8.658;2024-01-15T01:01:28;45.80;;;18.45;;
29120;SDS011;16191;49.548;8.658;2024-01-15T01:03:55;44.17;;;16.25;;
29120;SDS011;16191;49.548;8.658;2024-01-15T01:06:22;42.75;;;16.52;;
29120;SDS011;16191;49.548;8.658;2024-01-15T01:08:49;47.70;;;17.13;;
29120;SDS011;16191;49.548;8.658;2024-01-15T01:11:15;42.47;;;16.92;;
29120;SDS011;16191;49.548;8.658;2024-01-15T01:13:42;41.15;;;16.15;;
29120;SDS011;16191;49.548;8.658;2024-01-15T01:16:09;44.00;;;16.17;;
29120;SDS011;16191;49.548;8.658;2024-01-15T01:18:35;43.50;;;17.27;;
29120;SDS011;16191;49.548;8.658;2024-01-15T01:21:03;45.53;;;18.00;;
29120;SDS011;16191;49.548;8.658;2024-01-15T01:23:30;41.08;;;17.27;;
29120;SDS011;16191;49.548;8.658;2024-01-15T01:25:57;46.15;;;16.42;;
29120;SDS011;16191;49.548;8.658;2024-01-15T01:28:23;45.65;;;18.00;;
29120;SDS011;16191;49.548;8.658;2024-01-15T01:30:50;46.50;;;17.48;;
29120;SDS011;16191;49.548;8.658;2024-01-15T01:33:17;46.30;;;18.00;;
29120;SDS011;16191;49.548;8.658;2024-01-15T01:35:45;47.13;;;17.67;;
29120;SDS011;16191;49.548;8.658;2024-01-15T01:38:12;43.67;;;17.25;;
29120;SDS011;16191;49.548;8.658;2024-01-15T01:40:39;42.95;;;16.83;;
29120;SDS011;16191;49.548;8.658;2024-01-15T01:43:06;48.70;;;17.92;;
29120;SDS011;16191;49.548;8.658;2024-01-15T01:45:32;52.75;;;18.90;;
29120;SDS011;16191;49.548;8.658;2024-01-15T01:48:00;50.85;;;18.55;;
29120;SDS011;16191;49.548;8.658;2024-01-15T01:50:29;47.13;;;17.92;;
29120;SDS011;16191;49.548;8.658;2024-01-15T01:52:58;45.03;;;17.52;;
29120;SDS011;16191;49.548;8.658;2024-01-15T01:55:26;47.83;;;18.30;;
29120;SDS011;16191;49.548;8.658;2024-01-15T01:57:56;50.53;;;20.30;;
29120;SDS011;16191;49.548;8.658;2024-01-15T02:00:23;51.33;;;18.95;;
29120;SDS011;16191;49.548;8.658;2024-01-15T02:02:50;44.20;;;18.08;;
29120;SDS011;16191;49.548;8.658;2024-01-15T02:05:18;49.67;;;19.45;;
29120;SDS011;16191;49.548;8.658;2024-01-15T02:07:45;47.97;;;18.70;;
29120;SDS011;16191;49.548;8.658;2024-01-15T02:10:12;55.03;;;19.65;;
29120;SDS011;16191;49.548;8.658;2024-01-15T02:12:40;47.58;;;18.85;;
29120;SDS011;16191;49.548;8.658;2024-01-15T02:15:07;52.30;;;19.05;;
29120;SDS011;16191;49.548;8.658;2024-01-15T02:17:34;49.40;;;19.05;;
29120;SDS011;16191;49.548;8.658;2024-01-15T02:20:01;48.58;;;18.55;;
29120;SDS011;16191;49.548;8.658;2024-01-15T02:22:28;47.38;;;17.55;;
29120;SDS011;16191;49.548;8.658;2024-01-15T02:24:54;55.03;;;19.52;;
29120;SDS011;16191;49.548;8.658;2024-01-15T02:27:21;48.63;;;19.48;;
29120;SDS011;16191;49.548;8.658;2024-01-15T02:29:48;54.40;;;18.30;;
29120;SDS011;16191;49.548;8.658;2024-01-15T02:32:15;51.65;;;18.25;;
29120;SDS011;16191;49.548;8.658;2024-01-15T02:34:41;52.25;;;18.80;;
29120;SDS011;16191;49.548;8.658;2024-01-15T02:37:08;44.22;;;17.48;;
29120;SDS011;16191;49.548;8.658;2024-01-15T02:39:35;48.88;;;17.10;;
29120;SDS011;16191;49.548;8.658;2024-01-15T02:42:02;48.75;;;17.65;;
29120;SDS011;16191;49.548;8.658;2024-01-15T02:44:29;53.25;;;19.23;;
29120;SDS011;16191;49.548;8.658;2024-01-15T02:46:56;41.35;;;16.83;;
29120;SDS011;16191;49.548;8.658;2024-01-15T02:49:22;51.80;;;18.52;;
29120;SDS011;16191;49.548;8.658;2024-01-15T02:52:10;47.35;;;16.88;;
29120;SDS011;16191;49.548;8.658;2024-01-15T02:54:56;48.45;;;17.20;;
29120;SDS011;16191;49.548;8.658;2024-01-15T02:57:43;45.13;;;16.67;;
29120;SDS011;16191;49.548;8.658;2024-01-15T03:00:29;46.17;;;17.40;;
29120;SDS011;16191;49.548;8.658;2024-01-15T03:03:16;46.83;;;17.73;;
29120;SDS011;16191;49.548;8.658;2024-01-15T03:06:03;44.40;;;17.02;;
29120;SDS011;16191;49.548;8.658;2024-01-15T03:08:30;45.30;;;16.83;;
29120;SDS011;16191;49.548;8.658;2024-01-15T03:10:57;47.10;;;18.95;;
29120;SDS011;16191;49.548;8.658;2024-01-15T03:13:24;39.17;;;16.98;;
29120;SDS011;16191;49.548;8.658;2024-01-15T03:15:51;43.83;;;17.15;;
29120;SDS011;16191;49.548;8.658;2024-01-15T03:18:18;48.20;;;18.17;;
29120;SDS011;16191;49.548;8.658;2024-01-15T03:20:44;39.63;;;17.42;;
29120;SDS011;16191;49.548;8.658;2024-01-15T03:23:11;50.03;;;17.83;;
29120;SDS011;16191;49.548;8.658;2024-01-15T03:25:38;46.42;;;17.77;;
29120;SDS011;16191;49.548;8.658;2024-01-15T03:28:04;51.13;;;18.50;;
29120;SDS011;16191;49.548;8.658;2024-01-15T03:30:31;40.10;;;16.45;;
29120;SDS011;16191;49.548;8.658;2024-01-15T03:32:58;42.60;;;17.20;;
29120;SDS011;16191;49.548;8.658;2024-01-15T03:35:25;45.60;;;18.00;;
29120;SDS011;16191;49.548;8.658;2024-01-15T03:40:22;44.50;;;17.67;;
29120;SDS011;16191;49.548;8.658;2024-01-15T03:42:49;42.05;;;16.55;;
29120;SDS011;16191;49.548;8.658;2024-01-15T03:45:16;43.70;;;17.15;;
29120;SDS011;16191;49.548;8.658;2024-01-15T03:47:43;39.60;;;16.45;;
29120;SDS011;16191;49.548;8.658;2024-01-15T03:50:09;42.00;;;16.13;;
29120;SDS011;16191;49.548;8.658;2024-01-15T03:52:36;42.95;;;15.90;;
29120;SDS011;16191;49.548;8.658;2024-01-15T03:55:03;44.88;;;16.95;;
29120;SDS011;16191;49.548;8.658;2024-01-15T03:57:31;48.08;;;18.98;;
29120;SDS011;16191;49.548;8.658;2024-01-15T03:59:58;45.38;;;18.02;;
29120;SDS011;16191;49.548;8.658;2024-01-15T04:02:25;38.35;;;16.50;;
29120;SDS011;16191;49.548;8.658;2024-01-15T04:04:51;43.67;;;16.42;;
29120;SDS011;16191;49.548;8.658;2024-01-15T04:07:18;44.17;;;17.48;;
29120;SDS011;16191;49.548;8.658;2024-01-15T04:09:45;41.05;;;16.42;;
29120;SDS011;16191;49.548;8.658;2024-01-15T04:12:12;36.38;;;15.25;;
29120;SDS011;16191;49.548;8.658;2024-01-15T04:14:38;46.33;;;16.83;;
29120;SDS011;16191;49.548;8.658;2024-01-15T04:17:05;42.05;;;16.77;;
29120;SDS011;16191;49.548;8.658;2024-01-15T04:19:32;44.10;;;16.33;;
29120;SDS011;16191;49.548;8.658;2024-01-15T04:21:59;41.00;;;16.58;;
29120;SDS011;16191;49.548;8.658;2024-01-15T04:24:25;42.50;;;17.58;;
29120;SDS011;16191;49.548;8.658;2024-01-15T04:26:52;41.00;;;16.33;;
29120;SDS011;16191;49.548;8.658;2024-01-15T04:29:18;39.55;;;16.23;;
29120;SDS011;16191;49.548;8.658;2024-01-15T04:31:45;46.40;;;17.13;;
29120;SDS011;16191;49.548;8.658;2024-01-15T04:34:12;40.53;;;16.17;;
29120;SDS011;16191;49.548;8.658;2024-01-15T04:36:39;37.53;;;14.90;;
29120;SDS011;16191;49.548;8.658;2024-01-15T04:39:07;44.35;;;16.60;;
29120;SDS011;16191;49.548;8.658;2024-01-15T04:41:34;33.80;;;15.00;;
29120;SDS011;16191;49.548;8.658;2024-01-15T04:44:01;33.00;;;14.23;;
29120;SDS011;16191;49.548;8.658;2024-01-15T04:46:27;38.33;;;14.52;;
29120;SDS011;16191;49.548;8.658;2024-01-15T04:48:54;37.55;;;15.68;;
29120;SDS011;16191;49.548;8.658;2024-01-15T04:51:21;42.08;;;15.82;;
29120;SDS011;16191;49.548;8.658;2024-01-15T04:53:48;38.25;;;15.32;;
29120;SDS011;16191;49.548;8.658;2024-01-15T04:56:15;38.95;;;15.80;;
29120;SDS011;16191;49.548;8.658;2024-01-15T04:58:41;36.38;;;15.25;;
29120;SDS011;16191;49.548;8.658;2024-01-15T05:01:08;38.03;;;15.68;;
29120;SDS011;16191;49.548;8.658;2024-01-15T05:03:36;41.15;;;16.98;;
29120;SDS011;16191;49.548;8.658;2024-01-15T05:06:03;42.15;;;16.27;;
29120;SDS011;16191;49.548;8.658;2024-01-15T05:08:30;39.80;;;14.80;;
29120;SDS011;16191;49.548;8.658;2024-01-15T05:10:57;38.60;;;15.77;;
29120;SDS011;16191;49.548;8.658;2024-01-15T05:13:23;37.42;;;15.02;;
29120;SDS011;16191;49.548;8.658;2024-01-15T05:15:50;36.00;;;14.95;;
29120;SDS011;16191;49.548;8.658;2024-01-15T05:18:17;38.78;;;15.55;;
29120;SDS011;16191;49.548;8.658;2024-01-15T05:20:44;37.60;;;16.20;;
29120;SDS011;16191;49.548;8.658;2024-01-15T05:23:11;35.60;;;15.13;;
29120;SDS011;16191;49.548;8.658;2024-01-15T05:25:38;33.25;;;14.40;;
29120;SDS011;16191;49.548;8.658;2024-01-15T05:28:05;33.53;;;14.40;;
29120;SDS011;16191;49.548;8.658;2024-01-15T05:30:32;33.42;;;13.80;;
29120;SDS011;16191;49.548;8.658;2024-01-15T05:32:58;35.95;;;14.18;;
29120;SDS011;16191;49.548;8.658;2024-01-15T05:35:26;40.20;;;14.70;;
29120;SDS011;16191;49.548;8.658;2024-01-15T05:37:53;29.50;;;13.38;;
29120;SDS011;16191;49.548;8.658;2024-01-15T05:40:20;38.22;;;15.48;;
29120;SDS011;16191;49.548;8.658;2024-01-15T05:42:47;36.35;;;14.70;;
29120;SDS011;16191;49.548;8.658;2024-01-15T05:45:14;38.38;;;15.82;;
29120;SDS011;16191;49.548;8.658;2024-01-15T05:47:40;39.45;;;15.27;;
29120;SDS011;16191;49.548;8.658;2024-01-15T05:50:08;33.38;;;14.20;;
29120;SDS011;16191;49.548;8.658;2024-01-15T05:52:35;37.30;;;15.35;;
29120;SDS011;16191;49.548;8.658;2024-01-15T05:55:02;32.65;;;14.23;;
29120;SDS011;16191;49.548;8.658;2024-01-15T05:57:29;33.25;;;14.18;;
29120;SDS011;16191;49.548;8.658;2024-01-15T05:59:56;36.72;;;14.82;;
29120;SDS011;16191;49.548;8.658;2024-01-15T06:02:23;39.97;;;14.70;;
29120;SDS011;16191;49.548;8.658;2024-01-15T06:04:49;37.13;;;14.82;;
29120;SDS011;16191;49.548;8.658;2024-01-15T06:07:16;34.55;;;13.93;;
29120;SDS011;16191;49.548;8.658;2024-01-15T06:09:42;37.72;;;15.27;;
29120;SDS011;16191;49.548;8.658;2024-01-15T06:12:09;36.42;;;14.85;;
29120;SDS011;16191;49.548;8.658;2024-01-15T06:14:36;38.10;;;15.63;;
29120;SDS011;16191;49.548;8.658;2024-01-15T06:17:02;37.40;;;16.50;;
29120;SDS011;16191;49.548;8.658;2024-01-15T06:19:29;39.80;;;15.43;;
29120;SDS011;16191;49.548;8.658;2024-01-15T06:21:56;35.85;;;15.38;;
29120;SDS011;16191;49.548;8.658;2024-01-15T06:24:23;35.83;;;15.30;;
29120;SDS011;16191;49.548;8.658;2024-01-15T06:26:50;35.25;;;15.50;;
29120;SDS011;16191;49.548;8.658;2024-01-15T06:29:17;41.28;;;17.77;;
29120;SDS011;16191;49.548;8.658;2024-01-15T06:31:43;40.15;;;16.20;;
29120;SDS011;16191;49.548;8.658;2024-01-15T06:34:10;36.03;;;15.85;;
29120;SDS011;16191;49.548;8.658;2024-01-15T06:36:37;41.17;;;16.00;;
29120;SDS011;16191;49.548;8.658;2024-01-15T06:39:04;34.60;;;16.00;;
29120;SDS011;16191;49.548;8.658;2024-01-15T06:41:31;37.90;;;14.93;;
29120;SDS011;16191;49.548;8.658;2024-01-15T06:43:58;39.25;;;15.60;;
29120;SDS011;16191;49.548;8.658;2024-01-15T06:46:25;29.92;;;13.77;;
29120;SDS011;16191;49.548;8.658;2024-01-15T06:48:51;36.17;;;14.98;;
29120;SDS011;16191;49.548;8.658;2024-01-15T06:51:18;37.45;;;15.40;;
29120;SDS011;16191;49.548;8.658;2024-01-15T06:53:45;36.55;;;15.38;;
29120;SDS011;16191;49.548;8.658;2024-01-15T06:56:11;42.65;;;17.02;;
29120;SDS011;16191;49.548;8.658;2024-01-15T06:58:38;37.47;;;15.40;;
29120;SDS011;16191;49.548;8.658;2024-01-15T07:01:05;35.38;;;15.63;;
29120;SDS011;16191;49.548;8.658;2024-01-15T07:03:32;36.92;;;15.77;;
29120;SDS011;16191;49.548;8.658;2024-01-15T07:05:59;36.33;;;16.55;;
29120;SDS011;16191;49.548;8.658;2024-01-15T07:08:25;39.17;;;16.05;;
29120;SDS011;16191;49.548;8.658;2024-01-15T07:10:52;39.10;;;15.15;;
29120;SDS011;16191;49.548;8.658;2024-01-15T07:13:19;36.67;;;15.10;;
29120;SDS011;16191;49.548;8.658;2024-01-15T07:15:46;36.13;;;15.57;;
29120;SDS011;16191;49.548;8.658;2024-01-15T07:18:12;32.58;;;15.02;;
29120;SDS011;16191;49.548;8.658;2024-01-15T07:20:39;31.20;;;14.93;;
29120;SDS011;16191;49.548;8.658;2024-01-15T07:23:06;34.42;;;15.07;;
29120;SDS011;16191;49.548;8.658;2024-01-15T07:25:33;36.30;;;16.55;;
29120;SDS011;16191;49.548;8.658;2024-01-15T07:28:00;39.28;;;16.77;;
29120;SDS011;16191;49.548;8.658;2024-01-15T07:30:27;35.35;;;16.15;;
29120;SDS011;16191;49.548;8.658;2024-01-15T07:32:54;34.42;;;16.00;;
29120;SDS011;16191;49.548;8.658;2024-01-15T07:35:20;40.33;;;17.25;;
29120;SDS011;16191;49.548;8.658;2024-01-15T07:37:47;36.13;;;15.38;;
29120;SDS011;16191;49.548;8.658;2024-01-15T07:40:14;34.97;;;15.60;;
29120;SDS011;16191;49.548;8.658;2024-01-15T07:42:41;38.33;;;17.70;;
29120;SDS011;16191;49.548;8.658;2024-01-15T07:45:10;33.08;;;14.55;;
29120;SDS011;16191;49.548;8.658;2024-01-15T07:47:37;37.63;;;16.92;;
29120;SDS011;16191;49.548;8.658;2024-01-15T07:50:03;41.97;;;15.57;;
29120;SDS011;16191;49.548;8.658;2024-01-15T07:52:33;38.83;;;16.20;;
29120;SDS011;16191;49.548;8.658;2024-01-15T07:55:00;37.42;;;16.42;;
29120;SDS011;16191;49.548;8.658;2024-01-15T07:57:27;41.58;;;18.05;;
29120;SDS011;16191;49.548;8.658;2024-01-15T07:59:54;37.60;;;15.68;;
29120;SDS011;16191;49.548;8.658;2024-01-15T08:02:21;36.75;;;15.38;;
29120;SDS011;16191;49.548;8.658;2024-01-15T08:04:48;33.63;;;15.93;;
29120;SDS011;16191;49.548;8.658;2024-01-15T08:07:15;33.38;;;16.15;;
29120;SDS011;16191;49.548;8.658;2024-01-15T08:09:41;33.67;;;15.15;;
29120;SDS011;16191;49.548;8.658;2024-01-15T08:12:08;33.47;;;14.68;;
29120;SDS011;16191;49.548;8.658;2024-01-15T08:14:36;36.30;;;15.95;;
29120;SDS011;16191;49.548;8.658;2024-01-15T08:17:03;28.20;;;14.45;;
29120;SDS011;16191;49.548;8.658;2024-01-15T08:19:29;32.47;;;15.43;;
29120;SDS011;16191;49.548;8.658;2024-01-15T08:21:57;37.83;;;14.60;;
29120;SDS011;16191;49.548;8.658;2024-01-15T08:24:23;30.05;;;14.25;;
29120;SDS011;16191;49.548;8.658;2024-01-15T08:26:50;33.78;;;15.63;;
29120;SDS011;16191;49.548;8.658;2024-01-15T08:29:16;38.97;;;15.95;;
29120;SDS011;16191;49.548;8.658;2024-01-15T08:31:45;35.97;;;14.55;;
29120;SDS011;16191;49.548;8.658;2024-01-15T08:34:12;36.72;;;16.20;;
29120;SDS011;16191;49.548;8.658;2024-01-15T08:36:39;36.67;;;14.48;;
29120;SDS011;16191;49.548;8.658;2024-01-15T08:39:07;34.78;;;15.05;;
29120;SDS011;16191;49.548;8.658;2024-01-15T08:41:35;33.60;;;15.88;;
29120;SDS011;16191;49.548;8.658;2024-01-15T08:44:02;31.63;;;16.33;;
29120;SDS011;16191;49.548;8.658;2024-01-15T08:46:29;39.10;;;17.58;;
29120;SDS011;16191;49.548;8.658;2024-01-15T08:48:56;39.15;;;17.35;;
29120;SDS011;16191;49.548;8.658;2024-01-15T08:51:23;31.85;;;15.40;;
29120;SDS011;16191;49.548;8.658;2024-01-15T08:53:50;35.20;;;15.85;;
29120;SDS011;16191;49.548;8.658;2024-01-15T08:56:17;40.90;;;17.75;;
29120;SDS011;16191;49.548;8.658;2024-01-15T08:58:43;31.85;;;15.18;;
29120;SDS011;16191;49.548;8.658;2024-01-15T09:01:12;31.05;;;15.50;;
29120;SDS011;16191;49.548;8.658;2024-01-15T09:03:40;28.60;;;14.07;;
29120;SDS011;16191;49.548;8.658;2024-01-15T09:06:09;34.55;;;15.27;;
29120;SDS011;16191;49.548;8.658;2024-01-15T09:08:37;37.55;;;17.25;;
29120;SDS011;16191;49.548;8.658;2024-01-15T09:11:03;34.38;;;15.63;;
29120;SDS011;16191;49.548;8.658;2024-01-15T09:13:30;34.70;;;15.30;;
29120;SDS011;16191;49.548;8.658;2024-01-15T09:15:57;35.85;;;16.65;;
29120;SDS011;16191;49.548;8.658;2024-01-15T09:18:24;33.72;;;15.75;;
29120;SDS011;16191;49.548;8.658;2024-01-15T09:20:51;35.75;;;15.05;;
29120;SDS011;16191;49.548;8.658;2024-01-15T09:23:18;37.08;;;15.38;;
29120;SDS011;16191;49.548;8.658;2024-01-15T09:25:45;34.95;;;15.35;;
29120;SDS011;16191;49.548;8.658;2024-01-15T09:28:11;36.63;;;15.82;;
29120;SDS011;16191;49.548;8.658;2024-01-15T09:30:38;38.80;;;17.38;;
29120;SDS011;16191;49.548;8.658;2024-01-15T09:33:05;32.47;;;15.20;;
29120;SDS011;16191;49.548;8.658;2024-01-15T09:35:32;36.72;;;16.95;;
29120;SDS011;16191;49.548;8.658;2024-01-15T09:37:59;37.28;;;16.70;;
29120;SDS011;16191;49.548;8.658;2024-01-15T09:40:25;34.22;;;15.07;;
29120;SDS011;16191;49.548;8.658;2024-01-15T09:42:57;32.85;;;16.20;;
29120;SDS011;16191;49.548;8.658;2024-01-15T09:45:24;36.65;;;15.00;;
29120;SDS011;16191;49.548;8.658;2024-01-15T09:47:51;37.45;;;15.25;;
29120;SDS011;16191;49.548;8.658;2024-01-15T09:50:18;37.40;;;15.75;;
29120;SDS011;16191;49.548;8.658;2024-01-15T09:52:45;34.67;;;16.38;;
29120;SDS011;16191;49.548;8.658;2024-01-15T09:55:13;33.13;;;14.98;;
29120;SDS011;16191;49.548;8.658;2024-01-15T09:57:43;35.72;;;17.05;;
29120;SDS011;16191;49.548;8.658;2024-01-15T10:00:11;35.17;;;16.85;;
29120;SDS011;16191;49.548;8.658;2024-01-15T10:02:39;37.30;;;18.15;;
29120;SDS011;16191;49.548;8.658;2024-01-15T10:05:06;36.08;;;16.38;;
29120;SDS011;16191;49.548;8.658;2024-01-15T10:07:34;34.92;;;16.73;;
29120;SDS011;16191;49.548;8.658;2024-01-15T10:10:03;38.88;;;17.20;;
29120;SDS011;16191;49.548;8.658;2024-01-15T10:12:30;39.65;;;16.88;;
29120;SDS011;16191;49.548;8.658;2024-01-15T10:14:57;37.70;;;16.85;;
29120;SDS011;16191;49.548;8.658;2024-01-15T10:17:24;33.45;;;16.40;;
29120;SDS011;16191;49.548;8.658;2024-01-15T10:19:53;34.55;;;16.02;;
29120;SDS011;16191;49.548;8.658;2024-01-15T10:22:20;30.48;;;15.05;;
29120;SDS011;16191;49.548;8.658;2024-01-15T10:24:47;31.65;;;14.13;;
29120;SDS011;16191;49.548;8.658;2024-01-15T10:27:15;34.47;;;16.30;;
29120;SDS011;16191;49.548;8.658;2024-01-15T10:29:42;29.45;;;14.45;;
29120;SDS011;16191;49.548;8.658;2024-01-15T10:32:10;32.20;;;16.23;;
29120;SDS011;16191;49.548;8.658;2024-01-15T10:34:38;32.22;;;15.80;;
29120;SDS011;16191;49.548;8.658;2024-01-15T10:37:07;35.95;;;17.33;;
29120;SDS011;16191;49.548;8.658;2024-01-15T10:39:35;31.33;;;15.85;;
29120;SDS011;16191;49.548;8.658;2024-01-15T10:42:03;36.63;;;16.83;;
29120;SDS011;16191;49.548;8.658;2024-01-15T10:44:30;30.90;;;15.60;;
29120;SDS011;16191;49.548;8.658;2024-01-15T10:46:57;33.42;;;16.25;;
29120;SDS011;16191;49.548;8.658;2024-01-15T10:49:24;36.33;;;16.08;;
29120;SDS011;16191;49.548;8.658;2024-01-15T10:52:00;33.10;;;16.20;;
29120;SDS011;16191;49.548;8.658;2024-01-15T10:54:28;32.58;;;15.88;;
29120;SDS011;16191;49.548;8.658;2024-01-15T10:56:56;32.97;;;16.98;;
29120;SDS011;16191;49.548;8.658;2024-01-15T10:59:23;34.85;;;17.05;;
29120;SDS011;16191;49.548;8.658;2024-01-15T11:01:50;37.88;;;17.02;;
29120;SDS011;16191;49.548;8.658;2024-01-15T11:04:22;33.15;;;16.25;;
29120;SDS011;16191;49.548;8.658;2024-01-15T11:06:52;35.25;;;16.42;;
29120;SDS011;16191;49.548;8.658;2024-01-15T11:09:25;31.23;;;15.95;;
29120;SDS011;16191;49.548;8.658;2024-01-15T11:11:54;39.83;;;17.27;;
29120;SDS011;16191;49.548;8.658;2024-01-15T11:14:40;33.05;;;16.20;;
29120;SDS011;16191;49.548;8.658;2024-01-15T11:17:12;41.30;;;17.02;;
29120;SDS011;16191;49.548;8.658;2024-01-15T11:24:57;34.25;;;16.00;;
29120;SDS011;16191;49.548;8.658;2024-01-15T11:27:41;37.67;;;16.48;;
29120;SDS011;16191;49.548;8.658;2024-01-15T11:30:09;35.13;;;16.15;;
29120;SDS011;16191;49.548;8.658;2024-01-15T11:32:37;38.13;;;16.23;;
29120;SDS011;16191;49.548;8.658;2024-01-15T11:35:08;32.33;;;16.00;;
29120;SDS011;16191;49.548;8.658;2024-01-15T11:40:19;33.80;;;15.15;;
29120;SDS011;16191;49.548;8.658;2024-01-15T11:42:46;34.47;;;16.48;;
29120;SDS011;16191;49.548;8.658;2024-01-15T11:45:16;32.63;;;15.90;;
29120;SDS011;16191;49.548;8.658;2024-01-15T11:48:19;33.25;;;15.68;;
29120;SDS011;16191;49.548;8.658;2024-01-15T11:50:45;31.95;;;14.50;;
29120;SDS011;16191;49.548;8.658;2024-01-15T11:53:26;27.30;;;15.73;;
29120;SDS011;16191;49.548;8.658;2024-01-15T11:56:01;35.80;;;15.15;;
29120;SDS011;16191;49.548;8.658;2024-01-15T11:58:29;25.98;;;12.77;;
29120;SDS011;16191;49.548;8.658;2024-01-15T12:00:56;25.45;;;12.90;;
29120;SDS011;16191;49.548;8.658;2024-01-15T12:03:23;28.20;;;13.80;;
29120;SDS011;16191;49.548;8.658;2024-01-15T12:05:54;29.77;;;14.45;;
29120;SDS011;16191;49.548;8.658;2024-01-15T12:08:22;26.33;;;13.15;;
29120;SDS011;16191;49.548;8.658;2024-01-15T12:10:49;27.70;;;14.68;;
29120;SDS011;16191;49.548;8.658;2024-01-15T12:13:16;25.55;;;13.77;;
29120;SDS011;16191;49.548;8.658;2024-01-15T12:15:45;24.90;;;13.45;;
29120;SDS011;16191;49.548;8.658;2024-01-15T12:18:13;27.48;;;13.07;;
29120;SDS011;16191;49.548;8.658;2024-01-15T12:20:42;30.67;;;14.40;;
29120;SDS011;16191;49.548;8.658;2024-01-15T12:23:10;27.27;;;13.75;;
29120;SDS011;16191;49.548;8.658;2024-01-15T12:25:38;28.10;;;14.95;;
29120;SDS011;16191;49.548;8.658;2024-01-15T12:28:05;32.97;;;14.85;;
29120;SDS011;16191;49.548;8.658;2024-01-15T12:30:33;29.52;;;14.02;;
29120;SDS011;16191;49.548;8.658;2024-01-15T12:33:06;30.95;;;14.63;;
29120;SDS011;16191;49.548;8.658;2024-01-15T12:35:34;28.27;;;13.25;;
29120;SDS011;16191;49.548;8.658;2024-01-15T12:38:01;29.13;;;14.15;;
29120;SDS011;16191;49.548;8.658;2024-01-15T12:40:32;49.80;;;20.50;;
29120;SDS011;16191;49.548;8.658;2024-01-15T12:43:03;32.33;;;16.00;;
29120;SDS011;16191;49.548;8.658;2024-01-15T12:45:30;32.53;;;15.60;;
29120;SDS011;16191;49.548;8.658;2024-01-15T12:47:58;31.17;;;14.88;;
29120;SDS011;16191;49.548;8.658;2024-01-15T12:50:25;25.38;;;14.38;;
29120;SDS011;16191;49.548;8.658;2024-01-15T12:52:55;32.03;;;15.32;;
29120;SDS011;16191;49.548;8.658;2024-01-15T12:55:22;28.27;;;13.93;;
29120;SDS011;16191;49.548;8.658;2024-01-15T12:57:49;54.75;;;15.10;;
29120;SDS011;16191;49.548;8.658;2024-01-15T13:00:16;24.35;;;12.45;;
29120;SDS011;16191;49.548;8.658;2024-01-15T13:02:43;24.38;;;12.23;;
29120;SDS011;16191;49.548;8.658;2024-01-15T13:05:11;18.98;;;9.93;;
29120;SDS011;16191;49.548;8.658;2024-01-15T13:07:40;22.98;;;10.35;;
29120;SDS011;16191;49.548;8.658;2024-01-15T13:10:07;21.77;;;10.73;;
29120;SDS011;16191;49.548;8.658;2024-01-15T13:12:36;24.90;;;10.45;;
29120;SDS011;16191;49.548;8.658;2024-01-15T13:15:05;20.33;;;9.35;;
29120;SDS011;16191;49.548;8.658;2024-01-15T13:17:32;21.73;;;10.40;;
29120;SDS011;16191;49.548;8.658;2024-01-15T13:19:59;18.88;;;10.73;;
29120;SDS011;16191;49.548;8.658;2024-01-15T13:22:27;20.45;;;10.30;;
29120;SDS011;16191;49.548;8.658;2024-01-15T13:24:58;22.42;;;10.90;;
29120;SDS011;16191;49.548;8.658;2024-01-15T13:27:25;22.35;;;9.82;;
29120;SDS011;16191;49.548;8.658;2024-01-15T13:29:52;18.67;;;9.43;;
29120;SDS011;16191;49.548;8.658;2024-01-15T13:32:22;15.80;;;9.43;;
29120;SDS011;16191;49.548;8.658;2024-01-15T13:34:52;16.52;;;9.05;;
29120;SDS011;16191;49.548;8.658;2024-01-15T13:37:19;19.73;;;9.85;;
29120;SDS011;16191;49.548;8.658;2024-01-15T13:39:46;20.52;;;10.20;;
29120;SDS011;16191;49.548;8.658;2024-01-15T13:42:13;17.20;;;9.45;;
29120;SDS011;16191;49.548;8.658;2024-01-15T13:44:41;16.25;;;8.93;;
29120;SDS011;16191;49.548;8.658;2024-01-15T13:47:08;18.38;;;9.20;;
29120;SDS011;16191;49.548;8.658;2024-01-15T13:49:35;17.02;;;9.88;;
29120;SDS011;16191;49.548;8.658;2024-01-15T13:52:03;18.75;;;9.75;;
29120;SDS011;16191;49.548;8.658;2024-01-15T13:54:30;19.30;;;9.90;;
29120;SDS011;16191;49.548;8.658;2024-01-15T13:57:14;16.17;;;9.52;;
29120;SDS011;16191;49.548;8.658;2024-01-15T13:59:41;20.33;;;9.35;;
29120;SDS011;16191;49.548;8.658;2024-01-15T14:02:08;24.70;;;9.98;;
29120;SDS011;16191;49.548;8.658;2024-01-15T14:04:37;21.13;;;9.20;;
29120;SDS011;16191;49.548;8.658;2024-01-15T14:07:05;18.02;;;9.48;;
29120;SDS011;16191;49.548;8.658;2024-01-15T14:09:33;19.70;;;10.10;;
29120;SDS011;16191;49.548;8.658;2024-01-15T14:12:00;21.98;;;10.18;;
29120;SDS011;16191;49.548;8.658;2024-01-15T14:14:28;18.98;;;9.95;;
29120;SDS011;16191;49.548;8.658;2024-01-15T14:16:54;19.30;;;9.82;;
29120;SDS011;16191;49.548;8.658;2024-01-15T14:19:21;18.27;;;9.02;;
29120;SDS011;16191;49.548;8.658;2024-01-15T14:21:48;17.48;;;9.07;;
29120;SDS011;16191;49.548;8.658;2024-01-15T14:24:15;17.67;;;9.45;;
29120;SDS011;16191;49.548;8.658;2024-01-15T14:26:43;18.05;;;9.23;;
29120;SDS011;16191;49.548;8.658;2024-01-15T14:29:10;16.65;;;8.85;;
29120;SDS011;16191;49.548;8.658;2024-01-15T14:31:37;15.88;;;9.35;;
29120;SDS011;16191;49.548;8.658;2024-01-15T14:34:04;15.82;;;8.68;;
29120;SDS011;16191;49.548;8.658;2024-01-15T14:36:32;21.20;;;9.32;;